createdAt,value
2018-06-23T14:34:00.079Z,33.73
2018-06-23T14:36:29.058Z,33.75
2018-06-23T14:38:58.178Z,34.79
2018-06-23T14:41:27.920Z,34.10
2018-06-23T14:43:57.288Z,32.23
2018-06-23T14:46:26.337Z,33.34
2018-06-23T14:48:57.897Z,32.47
2018-06-23T14:51:27.137Z,32.77
2018-06-23T14:53:57.701Z,32.84
2018-06-23T14:56:26.582Z,33.88
2018-06-23T14:58:55.626Z,34.88
2018-06-23T15:01:25.089Z,34.03
2018-06-23T15:03:54.204Z,34.06
2018-06-23T15:06:23.185Z,34.04
2018-06-23T15:09:03.236Z,34.07
2018-06-23T15:11:43.141Z,34.28
2018-06-23T15:14:12.392Z,33.90
2018-06-23T15:16:41.472Z,32.35
2018-06-23T15:19:10.615Z,32.20
2018-06-23T15:21:40.234Z,31.33
2018-06-23T15:24:09.192Z,31.94
2018-06-23T15:26:38.308Z,31.80
2018-06-23T15:29:07.501Z,31.13
2018-06-23T15:31:36.420Z,31.13
2018-06-23T15:34:05.640Z,32.06
2018-06-23T15:36:35.729Z,31.61
2018-06-23T15:39:07.113Z,30.50
2018-06-23T15:41:36.156Z,30.55
2018-06-23T15:44:05.216Z,31.01
2018-06-23T15:46:34.659Z,30.43
2018-06-23T15:49:03.933Z,30.04
2018-06-23T15:51:32.897Z,31.25
2018-06-23T15:54:04.139Z,29.82
2018-06-23T15:56:33.228Z,30.89
2018-06-23T15:59:02.414Z,30.70
2018-06-23T16:01:31.456Z,30.89
2018-06-23T16:04:02.485Z,30.12
2018-06-23T16:06:31.565Z,30.42
2018-06-23T16:09:00.637Z,31.56
2018-06-23T16:11:29.801Z,32.35
2018-06-23T16:13:58.905Z,32.69
2018-06-23T16:16:28.016Z,32.37
2018-06-23T16:18:57.124Z,32.64
2018-06-23T16:21:27.049Z,33.57
2018-06-23T16:23:56.017Z,33.10
2018-06-23T16:26:25.219Z,32.65
2018-06-23T16:28:54.279Z,31.58
2018-06-23T16:31:23.421Z,32.47
2018-06-23T16:33:52.465Z,32.16
2018-06-23T16:36:21.478Z,31.21
2018-06-23T16:38:50.739Z,31.88
2018-06-23T16:41:19.686Z,31.51
2018-06-23T16:43:48.726Z,31.72
2018-06-23T16:46:17.917Z,29.84
2018-06-23T16:48:46.876Z,29.42
2018-06-23T16:51:15.865Z,30.54
2018-06-23T16:53:44.976Z,29.56
2018-06-23T16:56:14.131Z,29.61
2018-06-23T16:58:43.108Z,30.39
2018-06-23T17:01:12.747Z,29.86
2018-06-23T17:03:41.878Z,29.74
2018-06-23T17:06:10.826Z,30.37
2018-06-23T17:08:40.222Z,30.12
2018-06-23T17:11:10.329Z,29.82
2018-06-23T17:13:39.838Z,30.86
2018-06-23T17:16:09.565Z,30.20
2018-06-23T17:18:39.112Z,31.08
2018-06-23T17:21:08.266Z,31.58
2018-06-23T17:23:37.642Z,31.92
2018-06-23T17:26:08.686Z,32.19
2018-06-23T17:28:38.240Z,31.75
2018-06-23T17:31:07.185Z,32.28
2018-06-23T17:33:37.236Z,31.66
2018-06-23T17:36:06.326Z,32.41
2018-06-23T17:38:35.413Z,31.81
2018-06-23T17:41:04.495Z,32.60
2018-06-23T17:43:33.692Z,32.71
2018-06-23T17:46:02.614Z,32.97
2018-06-23T17:48:31.744Z,33.76
2018-06-23T17:51:00.806Z,34.72
2018-06-23T17:53:29.957Z,34.61
2018-06-23T17:55:59.031Z,34.87
2018-06-23T17:58:28.151Z,34.42
2018-06-23T18:00:57.236Z,35.54
2018-06-23T18:03:26.242Z,35.85
2018-06-23T18:05:55.850Z,35.72
2018-06-23T18:08:25.159Z,36.46
2018-06-23T18:10:54.205Z,36.03
2018-06-23T18:13:23.344Z,36.17
2018-06-23T18:15:52.313Z,36.15
2018-06-23T18:18:21.332Z,36.73
2018-06-23T18:20:51.071Z,36.94
2018-06-23T18:23:20.054Z,36.86
2018-06-23T18:25:49.223Z,37.25
2018-06-23T18:28:18.164Z,37.24
2018-06-23T18:30:47.067Z,37.67
2018-06-23T18:33:16.116Z,37.23
2018-06-23T18:35:45.635Z,37.82
2018-06-23T18:38:14.577Z,38.20
2018-06-23T18:40:43.689Z,38.41
2018-06-23T18:43:12.859Z,38.66
2018-06-23T18:45:41.909Z,38.57
2018-06-23T18:48:10.940Z,39.17
2018-06-23T18:50:40.179Z,39.32
2018-06-23T18:53:10.290Z,39.14
2018-06-23T18:55:40.738Z,40.16
2018-06-23T18:58:09.887Z,40.39
2018-06-23T19:00:38.965Z,40.24
2018-06-23T19:03:08.092Z,40.57
2018-06-23T19:05:37.083Z,40.83
2018-06-23T19:08:06.325Z,41.29
2018-06-23T19:10:35.900Z,41.99
2018-06-23T19:13:05.014Z,42.04
2018-06-23T19:15:34.182Z,40.53
2018-06-23T19:18:04.989Z,40.91
2018-06-23T19:20:34.244Z,40.73
2018-06-23T19:23:03.649Z,40.92
2018-06-23T19:25:32.751Z,41.55
2018-06-23T19:28:01.656Z,41.04
2018-06-23T19:30:30.744Z,40.86
2018-06-23T19:33:00.059Z,41.59
2018-06-23T19:35:29.230Z,41.89
2018-06-23T19:37:58.501Z,41.95
2018-06-23T19:40:27.517Z,42.64
2018-06-23T19:42:56.537Z,43.14
2018-06-23T19:45:25.615Z,43.77
2018-06-23T19:47:54.825Z,44.32
2018-06-23T19:50:23.895Z,44.55
2018-06-23T19:52:52.938Z,44.70
2018-06-23T19:55:22.567Z,44.33
2018-06-23T19:57:51.441Z,43.96
2018-06-23T20:00:20.445Z,44.69
2018-06-23T20:02:50.035Z,44.30
2018-06-23T20:05:18.941Z,44.39
2018-06-23T20:07:47.857Z,44.19
2018-06-23T20:10:17.155Z,44.24
2018-06-23T20:12:46.189Z,44.53
2018-06-23T20:15:16.392Z,44.76
2018-06-23T20:17:45.810Z,44.77
2018-06-23T20:20:14.686Z,45.15
2018-06-23T20:22:43.805Z,45.33
2018-06-23T20:25:13.104Z,45.64
2018-06-23T20:27:42.031Z,46.38
2018-06-23T20:30:11.160Z,46.90
2018-06-23T20:32:40.745Z,46.78
2018-06-23T20:35:09.836Z,47.52
2018-06-23T20:37:39.720Z,48.32
2018-06-23T20:40:09.082Z,47.77
2018-06-23T20:42:37.961Z,48.77
2018-06-23T20:45:07.324Z,48.70
2018-06-23T20:47:37.790Z,48.90
2018-06-23T20:50:06.802Z,49.88
2018-06-23T20:52:35.883Z,49.26
2018-06-23T20:55:05.484Z,50.15
2018-06-23T20:57:34.341Z,50.03
2018-06-23T21:00:03.376Z,50.30
2018-06-23T21:02:32.405Z,51.24
2018-06-23T21:05:01.528Z,51.29
2018-06-23T21:07:30.566Z,50.57
2018-06-23T21:09:59.872Z,51.38
2018-06-23T21:12:28.992Z,51.81
2018-06-23T21:14:58.227Z,51.35
2018-06-23T21:17:27.500Z,52.21
2018-06-23T21:19:56.475Z,52.37
2018-06-23T21:22:25.639Z,52.01
2018-06-23T21:24:54.824Z,52.49
2018-06-23T21:27:23.919Z,52.78
2018-06-23T21:29:53.053Z,52.55
2018-06-23T21:32:22.625Z,51.97
2018-06-23T21:34:51.769Z,52.60
2018-06-23T21:37:20.851Z,51.94
2018-06-23T21:39:50.400Z,52.95
2018-06-23T21:42:19.421Z,53.44
2018-06-23T21:44:48.423Z,53.47
2018-06-23T21:47:19.420Z,52.71
2018-06-23T21:49:48.498Z,52.51
2018-06-23T21:52:17.541Z,52.36
2018-06-23T21:54:46.980Z,52.86
2018-06-23T21:57:15.923Z,52.03
2018-06-23T21:59:45.007Z,52.52
2018-06-23T22:02:14.661Z,52.84
2018-06-23T22:04:43.651Z,53.17
2018-06-23T22:07:12.745Z,53.64
2018-06-23T22:09:42.364Z,52.91
2018-06-23T22:12:11.280Z,53.13
2018-06-23T22:14:40.373Z,52.95
2018-06-23T22:17:09.924Z,53.97
2018-06-23T22:19:39.082Z,54.10
2018-06-23T22:22:08.298Z,53.53
2018-06-23T22:24:37.747Z,53.68
2018-06-23T22:27:06.751Z,54.59
2018-06-23T22:29:35.780Z,54.45
2018-06-23T22:32:05.219Z,53.95
2018-06-23T22:34:34.235Z,54.11
2018-06-23T22:37:03.359Z,53.80
2018-06-23T22:39:32.905Z,54.26
2018-06-23T22:42:01.869Z,53.73
2018-06-23T22:44:31.004Z,54.23
2018-06-23T22:47:00.477Z,54.20
2018-06-23T22:49:29.588Z,55.09
2018-06-23T22:51:58.606Z,54.31
2018-06-23T22:54:28.075Z,54.86
2018-06-23T22:56:57.054Z,54.91
2018-06-23T22:59:26.098Z,54.91
2018-06-23T23:01:55.319Z,54.14
2018-06-23T23:04:24.262Z,54.71
2018-06-23T23:06:53.174Z,54.72
2018-06-23T23:09:22.793Z,54.23
2018-06-23T23:11:51.811Z,53.80
2018-06-23T23:14:20.980Z,53.08
2018-06-23T23:16:49.939Z,53.23
2018-06-23T23:19:19.759Z,53.37
2018-06-23T23:21:48.761Z,53.55
2018-06-23T23:24:18.216Z,53.78
2018-06-23T23:26:47.116Z,53.73
2018-06-23T23:29:16.039Z,52.94
2018-06-23T23:31:45.520Z,53.20
2018-06-23T23:34:14.502Z,52.92
2018-06-23T23:36:43.643Z,52.90
2018-06-23T23:39:12.765Z,52.56
2018-06-23T23:41:41.897Z,53.17
2018-06-23T23:44:10.954Z,53.12
2018-06-23T23:46:39.997Z,52.85
2018-06-23T23:49:09.016Z,52.61
2018-06-23T23:51:38.072Z,52.16
2018-06-23T23:54:07.224Z,52.97
2018-06-23T23:56:36.255Z,52.03
2018-06-23T23:59:05.310Z,52.46
